sensor_id;sensor_type;location;lat;lon;timestamp;temperature;humidity
19878;DHT22;10101;52.204;9.910;2023-05-29T00:01:24;12.80;1.00
19878;DHT22;10101;52.204;9.910;2023-05-29T00:03:51;12.80;99.90
19878;DHT22;10101;52.204;9.910;2023-05-29T00:06:18;12.70;1.00
19878;DHT22;10101;52.204;9.910;2023-05-29T00:08:45;12.70;99.90
19878;DHT22;10101;52.204;9.910;2023-05-29T00:11:14;12.70;1.00
19878;DHT22;10101;52.204;9.910;2023-05-29T00:13:40;12.60;1.00
19878;DHT22;10101;52.204;9.910;2023-05-29T00:16:07;12.60;99.90
19878;DHT22;10101;52.204;9.910;2023-05-29T00:18:34;12.60;99.90
19878;DHT22;10101;52.204;9.910;2023-05-29T00:21:02;12.50;99.90
19878;DHT22;10101;52.204;9.910;2023-05-29T00:23:28;12.50;99.90
19878;DHT22;10101;52.204;9.910;2023-05-29T00:25:55;12.40;99.90
19878;DHT22;10101;52.204;9.910;2023-05-29T00:28:23;12.40;99.90
19878;DHT22;10101;52.204;9.910;2023-05-29T00:30:51;12.30;99.90
19878;DHT22;10101;52.204;9.910;2023-05-29T00:33:18;12.20;99.90
19878;DHT22;10101;52.204;9.910;2023-05-29T00:35:45;12.20;99.90
19878;DHT22;10101;52.204;9.910;2023-05-29T00:38:12;12.20;99.90
19878;DHT22;10101;52.204;9.910;2023-05-29T00:40:39;12.10;99.90
19878;DHT22;10101;52.204;9.910;2023-05-29T00:43:06;12.10;99.90
19878;DHT22;10101;52.204;9.910;2023-05-29T00:45:34;12.10;99.90
19878;DHT22;10101;52.204;9.910;2023-05-29T00:48:02;12.10;99.90
19878;DHT22;10101;52.204;9.910;2023-05-29T00:50:30;12.00;99.90
19878;DHT22;10101;52.204;9.910;2023-05-29T00:52:57;12.00;99.90
19878;DHT22;10101;52.204;9.910;2023-05-29T00:55:24;12.00;99.90
19878;DHT22;10101;52.204;9.910;2023-05-29T00:57:52;11.90;99.90
19878;DHT22;10101;52.204;9.910;2023-05-29T01:00:19;11.80;99.90
19878;DHT22;10101;52.204;9.910;2023-05-29T01:02:47;11.70;99.90
19878;DHT22;10101;52.204;9.910;2023-05-29T01:05:14;11.70;99.90
19878;DHT22;10101;52.204;9.910;2023-05-29T01:07:42;11.70;99.90
19878;DHT22;10101;52.204;9.910;2023-05-29T01:10:09;11.70;99.90
19878;DHT22;10101;52.204;9.910;2023-05-29T01:12:40;11.60;99.90
19878;DHT22;10101;52.204;9.910;2023-05-29T01:15:19;11.60;99.90
19878;DHT22;10101;52.204;9.910;2023-05-29T01:17:56;11.50;99.90
19878;DHT22;10101;52.204;9.910;2023-05-29T01:20:31;11.50;99.90
19878;DHT22;10101;52.204;9.910;2023-05-29T01:23:14;11.40;99.90
19878;DHT22;10101;52.204;9.910;2023-05-29T01:26:01;11.40;99.90
19878;DHT22;10101;52.204;9.910;2023-05-29T01:28:35;11.40;99.90
19878;DHT22;10101;52.204;9.910;2023-05-29T01:31:04;11.30;99.90
19878;DHT22;10101;52.204;9.910;2023-05-29T01:33:32;11.30;99.90
19878;DHT22;10101;52.204;9.910;2023-05-29T01:35:59;11.20;99.90
19878;DHT22;10101;52.204;9.910;2023-05-29T01:38:26;11.20;99.90
19878;DHT22;10101;52.204;9.910;2023-05-29T01:40:53;11.20;99.90
19878;DHT22;10101;52.204;9.910;2023-05-29T01:43:20;11.20;99.90
19878;DHT22;10101;52.204;9.910;2023-05-29T01:45:48;11.10;99.90
19878;DHT22;10101;52.204;9.910;2023-05-29T01:48:15;11.00;99.90
19878;DHT22;10101;52.204;9.910;2023-05-29T01:50:42;11.00;99.90
19878;DHT22;10101;52.204;9.910;2023-05-29T01:53:10;10.90;99.90
19878;DHT22;10101;52.204;9.910;2023-05-29T01:55:36;10.80;99.90
19878;DHT22;10101;52.204;9.910;2023-05-29T01:58:04;10.80;99.90
19878;DHT22;10101;52.204;9.910;2023-05-29T02:00:32;10.70;99.90
19878;DHT22;10101;52.204;9.910;2023-05-29T02:03:00;10.70;99.90
19878;DHT22;10101;52.204;9.910;2023-05-29T02:05:27;10.70;99.90
19878;DHT22;10101;52.204;9.910;2023-05-29T02:07:54;10.70;99.90
19878;DHT22;10101;52.204;9.910;2023-05-29T02:10:20;10.70;99.90
19878;DHT22;10101;52.204;9.910;2023-05-29T02:12:47;10.70;99.90
19878;DHT22;10101;52.204;9.910;2023-05-29T02:15:14;10.60;99.90
19878;DHT22;10101;52.204;9.910;2023-05-29T02:17:41;10.60;99.90
19878;DHT22;10101;52.204;9.910;2023-05-29T02:20:10;10.60;99.90
19878;DHT22;10101;52.204;9.910;2023-05-29T02:22:37;10.60;99.90
19878;DHT22;10101;52.204;9.910;2023-05-29T02:25:04;10.50;99.90
19878;DHT22;10101;52.204;9.910;2023-05-29T02:27:31;10.60;99.90
19878;DHT22;10101;52.204;9.910;2023-05-29T02:29:58;10.50;99.90
19878;DHT22;10101;52.204;9.910;2023-05-29T02:32:25;10.50;99.90
19878;DHT22;10101;52.204;9.910;2023-05-29T02:34:53;10.50;99.90
19878;DHT22;10101;52.204;9.910;2023-05-29T02:37:21;10.50;99.90
19878;DHT22;10101;52.204;9.910;2023-05-29T02:39:50;10.50;99.90
19878;DHT22;10101;52.204;9.910;2023-05-29T02:42:17;10.40;99.90
19878;DHT22;10101;52.204;9.910;2023-05-29T02:44:44;10.40;99.90
19878;DHT22;10101;52.204;9.910;2023-05-29T02:47:11;10.40;99.90
19878;DHT22;10101;52.204;9.910;2023-05-29T02:49:38;10.20;99.90
19878;DHT22;10101;52.204;9.910;2023-05-29T02:52:05;10.30;99.90
19878;DHT22;10101;52.204;9.910;2023-05-29T02:54:33;10.20;99.90
19878;DHT22;10101;52.204;9.910;2023-05-29T02:57:00;10.20;99.90
19878;DHT22;10101;52.204;9.910;2023-05-29T02:59:27;10.10;99.90
19878;DHT22;10101;52.204;9.910;2023-05-29T03:01:54;10.00;99.90
19878;DHT22;10101;52.204;9.910;2023-05-29T03:04:21;10.10;99.90
19878;DHT22;10101;52.204;9.910;2023-05-29T03:06:47;10.10;99.90
19878;DHT22;10101;52.204;9.910;2023-05-29T03:09:14;10.10;99.90
19878;DHT22;10101;52.204;9.910;2023-05-29T03:11:43;10.00;99.90
19878;DHT22;10101;52.204;9.910;2023-05-29T03:14:10;10.00;99.90
19878;DHT22;10101;52.204;9.910;2023-05-29T03:16:37;10.00;99.90
19878;DHT22;10101;52.204;9.910;2023-05-29T03:19:06;9.90;99.90
19878;DHT22;10101;52.204;9.910;2023-05-29T03:21:32;9.80;99.90
19878;DHT22;10101;52.204;9.910;2023-05-29T03:24:01;9.80;99.90
19878;DHT22;10101;52.204;9.910;2023-05-29T03:26:28;9.80;99.90
19878;DHT22;10101;52.204;9.910;2023-05-29T03:28:56;9.80;99.90
19878;DHT22;10101;52.204;9.910;2023-05-29T03:31:22;9.90;99.90
19878;DHT22;10101;52.204;9.910;2023-05-29T03:33:49;9.80;99.90
19878;DHT22;10101;52.204;9.910;2023-05-29T03:36:16;9.70;99.90
19878;DHT22;10101;52.204;9.910;2023-05-29T03:38:43;9.80;99.90
19878;DHT22;10101;52.204;9.910;2023-05-29T03:41:10;9.80;99.90
19878;DHT22;10101;52.204;9.910;2023-05-29T03:43:37;9.70;99.90
19878;DHT22;10101;52.204;9.910;2023-05-29T03:46:06;9.60;99.90
19878;DHT22;10101;52.204;9.910;2023-05-29T03:48:33;9.60;99.90
19878;DHT22;10101;52.204;9.910;2023-05-29T03:51:00;9.50;99.90
19878;DHT22;10101;52.204;9.910;2023-05-29T03:53:26;9.50;99.90
19878;DHT22;10101;52.204;9.910;2023-05-29T03:55:53;9.50;99.90
19878;DHT22;10101;52.204;9.910;2023-05-29T03:58:20;9.50;99.90
19878;DHT22;10101;52.204;9.910;2023-05-29T04:00:47;9.60;99.90
19878;DHT22;10101;52.204;9.910;2023-05-29T04:03:15;9.70;99.90
19878;DHT22;10101;52.204;9.910;2023-05-29T04:05:42;9.80;99.90
19878;DHT22;10101;52.204;9.910;2023-05-29T04:08:08;9.70;99.90
19878;DHT22;10101;52.204;9.910;2023-05-29T04:10:36;9.70;99.90
19878;DHT22;10101;52.204;9.910;2023-05-29T04:13:04;9.60;99.90
19878;DHT22;10101;52.204;9.910;2023-05-29T04:15:31;9.50;99.90
19878;DHT22;10101;52.204;9.910;2023-05-29T04:17:59;9.50;99.90
19878;DHT22;10101;52.204;9.910;2023-05-29T04:20:27;9.50;99.90
19878;DHT22;10101;52.204;9.910;2023-05-29T04:22:54;9.40;99.90
19878;DHT22;10101;52.204;9.910;2023-05-29T04:25:20;9.40;99.90
19878;DHT22;10101;52.204;9.910;2023-05-29T04:27:47;9.60;99.90
19878;DHT22;10101;52.204;9.910;2023-05-29T04:30:15;9.70;99.90
19878;DHT22;10101;52.204;9.910;2023-05-29T04:32:42;9.80;99.90
19878;DHT22;10101;52.204;9.910;2023-05-29T04:35:09;9.90;99.90
19878;DHT22;10101;52.204;9.910;2023-05-29T04:37:37;9.80;99.90
19878;DHT22;10101;52.204;9.910;2023-05-29T04:40:06;9.80;99.90
19878;DHT22;10101;52.204;9.910;2023-05-29T04:42:34;10.00;99.90
19878;DHT22;10101;52.204;9.910;2023-05-29T04:45:02;10.00;99.90
19878;DHT22;10101;52.204;9.910;2023-05-29T04:47:30;10.10;99.90
19878;DHT22;10101;52.204;9.910;2023-05-29T04:49:58;10.30;99.90
19878;DHT22;10101;52.204;9.910;2023-05-29T04:52:25;10.20;99.90
19878;DHT22;10101;52.204;9.910;2023-05-29T04:54:53;10.30;99.90
19878;DHT22;10101;52.204;9.910;2023-05-29T04:57:22;10.40;99.90
19878;DHT22;10101;52.204;9.910;2023-05-29T04:59:48;10.50;99.90
19878;DHT22;10101;52.204;9.910;2023-05-29T05:02:15;10.60;99.90
19878;DHT22;10101;52.204;9.910;2023-05-29T05:04:42;10.50;99.90
19878;DHT22;10101;52.204;9.910;2023-05-29T05:07:11;10.60;99.90
19878;DHT22;10101;52.204;9.910;2023-05-29T05:09:37;10.70;99.90
19878;DHT22;10101;52.204;9.910;2023-05-29T05:12:06;10.70;99.90
19878;DHT22;10101;52.204;9.910;2023-05-29T05:14:33;10.60;99.90
19878;DHT22;10101;52.204;9.910;2023-05-29T05:17:00;10.60;99.90
19878;DHT22;10101;52.204;9.910;2023-05-29T05:19:27;10.70;99.90
19878;DHT22;10101;52.204;9.910;2023-05-29T05:21:53;10.70;99.90
19878;DHT22;10101;52.204;9.910;2023-05-29T05:24:20;10.90;99.90
19878;DHT22;10101;52.204;9.910;2023-05-29T05:26:47;11.10;99.90
19878;DHT22;10101;52.204;9.910;2023-05-29T05:29:16;11.30;99.90
19878;DHT22;10101;52.204;9.910;2023-05-29T05:31:43;11.40;99.90
19878;DHT22;10101;52.204;9.910;2023-05-29T05:34:10;11.50;99.90
19878;DHT22;10101;52.204;9.910;2023-05-29T05:36:36;11.40;99.90
19878;DHT22;10101;52.204;9.910;2023-05-29T05:39:03;11.50;99.90
19878;DHT22;10101;52.204;9.910;2023-05-29T05:41:30;11.60;99.90
19878;DHT22;10101;52.204;9.910;2023-05-29T05:43:57;11.70;99.90
19878;DHT22;10101;52.204;9.910;2023-05-29T05:46:26;12.00;99.90
19878;DHT22;10101;52.204;9.910;2023-05-29T05:48:53;12.00;99.90
19878;DHT22;10101;52.204;9.910;2023-05-29T05:51:22;12.10;99.90
19878;DHT22;10101;52.204;9.910;2023-05-29T05:53:49;12.30;99.90
19878;DHT22;10101;52.204;9.910;2023-05-29T05:56:16;12.90;99.90
19878;DHT22;10101;52.204;9.910;2023-05-29T05:58:43;12.90;99.90
19878;DHT22;10101;52.204;9.910;2023-05-29T06:01:09;12.80;99.90
19878;DHT22;10101;52.204;9.910;2023-05-29T06:03:38;12.90;99.90
19878;DHT22;10101;52.204;9.910;2023-05-29T06:06:05;12.60;1.00
19878;DHT22;10101;52.204;9.910;2023-05-29T06:08:32;12.60;99.90
19878;DHT22;10101;52.204;9.910;2023-05-29T06:10:59;12.50;1.00
19878;DHT22;10101;52.204;9.910;2023-05-29T06:13:25;12.80;99.90
19878;DHT22;10101;52.204;9.910;2023-05-29T06:15:52;13.50;99.90
19878;DHT22;10101;52.204;9.910;2023-05-29T06:18:19;13.30;97.50
19878;DHT22;10101;52.204;9.910;2023-05-29T06:20:47;13.10;99.90
19878;DHT22;10101;52.204;9.910;2023-05-29T06:23:14;13.60;99.90
19878;DHT22;10101;52.204;9.910;2023-05-29T06:25:41;14.40;99.90
19878;DHT22;10101;52.204;9.910;2023-05-29T06:28:08;14.00;1.00
19878;DHT22;10101;52.204;9.910;2023-05-29T06:30:35;13.40;99.90
19878;DHT22;10101;52.204;9.910;2023-05-29T06:33:02;13.50;99.90
19878;DHT22;10101;52.204;9.910;2023-05-29T06:35:29;13.90;99.90
19878;DHT22;10101;52.204;9.910;2023-05-29T06:37:57;13.90;1.00
19878;DHT22;10101;52.204;9.910;2023-05-29T06:40:23;14.60;1.00
19878;DHT22;10101;52.204;9.910;2023-05-29T06:42:50;13.70;1.00
19878;DHT22;10101;52.204;9.910;2023-05-29T06:45:17;14.50;29.10
19878;DHT22;10101;52.204;9.910;2023-05-29T06:47:44;14.80;1.00
19878;DHT22;10101;52.204;9.910;2023-05-29T06:50:10;14.00;66.90
19878;DHT22;10101;52.204;9.910;2023-05-29T06:52:37;14.70;99.90
19878;DHT22;10101;52.204;9.910;2023-05-29T06:55:06;14.40;1.00
19878;DHT22;10101;52.204;9.910;2023-05-29T06:57:33;13.90;99.90
19878;DHT22;10101;52.204;9.910;2023-05-29T07:00:00;13.90;99.90
19878;DHT22;10101;52.204;9.910;2023-05-29T07:02:27;14.10;99.90
19878;DHT22;10101;52.204;9.910;2023-05-29T07:04:54;14.30;99.90
19878;DHT22;10101;52.204;9.910;2023-05-29T07:07:21;15.00;99.90
19878;DHT22;10101;52.204;9.910;2023-05-29T07:09:47;15.30;99.90
19878;DHT22;10101;52.204;9.910;2023-05-29T07:12:15;15.50;1.00
19878;DHT22;10101;52.204;9.910;2023-05-29T07:14:42;15.90;1.00
19878;DHT22;10101;52.204;9.910;2023-05-29T07:17:09;15.30;99.90
19878;DHT22;10101;52.204;9.910;2023-05-29T07:19:36;14.80;1.50
19878;DHT22;10101;52.204;9.910;2023-05-29T07:22:03;15.00;1.00
19878;DHT22;10101;52.204;9.910;2023-05-29T07:24:30;15.10;1.00
19878;DHT22;10101;52.204;9.910;2023-05-29T07:26:56;14.90;1.00
19878;DHT22;10101;52.204;9.910;2023-05-29T07:29:25;14.70;1.00
19878;DHT22;10101;52.204;9.910;2023-05-29T07:31:52;14.50;99.90
19878;DHT22;10101;52.204;9.910;2023-05-29T07:34:19;14.50;99.90
19878;DHT22;10101;52.204;9.910;2023-05-29T07:37:00;15.40;1.00
19878;DHT22;10101;52.204;9.910;2023-05-29T07:39:28;14.70;99.90
19878;DHT22;10101;52.204;9.910;2023-05-29T07:41:54;15.60;1.00
19878;DHT22;10101;52.204;9.910;2023-05-29T07:44:21;15.40;99.90
19878;DHT22;10101;52.204;9.910;2023-05-29T07:46:49;15.60;99.90
19878;DHT22;10101;52.204;9.910;2023-05-29T07:49:16;15.90;1.00
19878;DHT22;10101;52.204;9.910;2023-05-29T07:51:43;16.70;99.90
19878;DHT22;10101;52.204;9.910;2023-05-29T07:54:10;16.70;99.90
19878;DHT22;10101;52.204;9.910;2023-05-29T07:56:36;16.40;1.00
19878;DHT22;10101;52.204;9.910;2023-05-29T07:59:04;17.10;1.00
19878;DHT22;10101;52.204;9.910;2023-05-29T08:01:31;17.90;99.90
19878;DHT22;10101;52.204;9.910;2023-05-29T08:03:59;16.80;1.00
19878;DHT22;10101;52.204;9.910;2023-05-29T08:06:26;16.40;99.90
19878;DHT22;10101;52.204;9.910;2023-05-29T08:08:53;16.50;1.00
19878;DHT22;10101;52.204;9.910;2023-05-29T08:11:21;17.20;99.90
19878;DHT22;10101;52.204;9.910;2023-05-29T08:13:48;16.10;1.00
19878;DHT22;10101;52.204;9.910;2023-05-29T08:16:15;17.50;99.90
19878;DHT22;10101;52.204;9.910;2023-05-29T08:18:42;16.80;1.00
19878;DHT22;10101;52.204;9.910;2023-05-29T08:21:10;16.80;1.00
19878;DHT22;10101;52.204;9.910;2023-05-29T08:23:38;15.90;1.00
19878;DHT22;10101;52.204;9.910;2023-05-29T08:26:05;16.00;99.90
19878;DHT22;10101;52.204;9.910;2023-05-29T08:28:31;17.30;1.00
19878;DHT22;10101;52.204;9.910;2023-05-29T08:30:58;16.70;1.00
19878;DHT22;10101;52.204;9.910;2023-05-29T08:33:25;16.90;1.00
19878;DHT22;10101;52.204;9.910;2023-05-29T08:35:52;18.00;99.90
19878;DHT22;10101;52.204;9.910;2023-05-29T08:38:20;17.10;1.00
19878;DHT22;10101;52.204;9.910;2023-05-29T08:40:47;17.80;1.00
19878;DHT22;10101;52.204;9.910;2023-05-29T08:43:16;18.80;33.80
19878;DHT22;10101;52.204;9.910;2023-05-29T08:45:45;18.20;1.00
19878;DHT22;10101;52.204;9.910;2023-05-29T08:48:13;17.30;1.00
19878;DHT22;10101;52.204;9.910;2023-05-29T08:50:43;17.10;99.90
19878;DHT22;10101;52.204;9.910;2023-05-29T08:53:12;16.60;1.00
19878;DHT22;10101;52.204;9.910;2023-05-29T08:55:40;16.80;1.00
19878;DHT22;10101;52.204;9.910;2023-05-29T08:58:07;17.30;65.70
19878;DHT22;10101;52.204;9.910;2023-05-29T09:00:35;17.50;1.00
19878;DHT22;10101;52.204;9.910;2023-05-29T09:03:02;17.90;99.90
19878;DHT22;10101;52.204;9.910;2023-05-29T09:05:29;17.20;1.00
19878;DHT22;10101;52.204;9.910;2023-05-29T09:07:58;17.20;1.00
19878;DHT22;10101;52.204;9.910;2023-05-29T09:10:25;17.80;1.00
19878;DHT22;10101;52.204;9.910;2023-05-29T09:12:54;18.60;99.90
19878;DHT22;10101;52.204;9.910;2023-05-29T09:15:22;17.80;1.00
19878;DHT22;10101;52.204;9.910;2023-05-29T09:17:50;18.20;1.00
19878;DHT22;10101;52.204;9.910;2023-05-29T09:20:19;19.00;99.90
19878;DHT22;10101;52.204;9.910;2023-05-29T09:22:56;19.00;1.00
19878;DHT22;10101;52.204;9.910;2023-05-29T09:25:24;19.10;1.00
19878;DHT22;10101;52.204;9.910;2023-05-29T09:27:55;18.30;99.90
19878;DHT22;10101;52.204;9.910;2023-05-29T09:30:33;17.50;1.00
19878;DHT22;10101;52.204;9.910;2023-05-29T09:33:00;17.70;13.90
19878;DHT22;10101;52.204;9.910;2023-05-29T09:35:32;17.20;1.00
19878;DHT22;10101;52.204;9.910;2023-05-29T09:37:59;17.10;1.00
19878;DHT22;10101;52.204;9.910;2023-05-29T09:40:26;17.30;99.90
19878;DHT22;10101;52.204;9.910;2023-05-29T09:43:02;17.60;1.00
19878;DHT22;10101;52.204;9.910;2023-05-29T09:45:30;18.80;1.00
19878;DHT22;10101;52.204;9.910;2023-05-29T09:47:57;18.60;99.90
19878;DHT22;10101;52.204;9.910;2023-05-29T09:50:26;19.20;99.90
19878;DHT22;10101;52.204;9.910;2023-05-29T09:52:53;18.80;1.00
19878;DHT22;10101;52.204;9.910;2023-05-29T09:55:21;18.90;99.90
19878;DHT22;10101;52.204;9.910;2023-05-29T09:57:52;19.10;1.00
19878;DHT22;10101;52.204;9.910;2023-05-29T10:00:21;18.60;85.70
19878;DHT22;10101;52.204;9.910;2023-05-29T10:02:49;18.60;1.00
19878;DHT22;10101;52.204;9.910;2023-05-29T10:05:16;19.00;99.90
19878;DHT22;10101;52.204;9.910;2023-05-29T10:07:45;18.00;1.00
19878;DHT22;10101;52.204;9.910;2023-05-29T10:10:13;18.10;1.00
19878;DHT22;10101;52.204;9.910;2023-05-29T10:12:44;18.40;1.00
19878;DHT22;10101;52.204;9.910;2023-05-29T10:15:15;18.50;1.00
19878;DHT22;10101;52.204;9.910;2023-05-29T10:17:50;18.80;1.00
19878;DHT22;10101;52.204;9.910;2023-05-29T10:20:19;18.60;76.40
19878;DHT22;10101;52.204;9.910;2023-05-29T10:22:49;18.10;20.20
19878;DHT22;10101;52.204;9.910;2023-05-29T10:25:18;18.60;1.00
19878;DHT22;10101;52.204;9.910;2023-05-29T10:27:46;18.10;1.00
19878;DHT22;10101;52.204;9.910;2023-05-29T10:30:21;18.50;1.00
19878;DHT22;10101;52.204;9.910;2023-05-29T10:35:50;19.80;99.90
19878;DHT22;10101;52.204;9.910;2023-05-29T10:38:18;19.50;99.90
19878;DHT22;10101;52.204;9.910;2023-05-29T10:40:46;19.30;99.90
19878;DHT22;10101;52.204;9.910;2023-05-29T10:43:32;20.20;99.90
19878;DHT22;10101;52.204;9.910;2023-05-29T10:45:59;18.80;99.90
19878;DHT22;10101;52.204;9.910;2023-05-29T10:48:49;18.90;65.10
19878;DHT22;10101;52.204;9.910;2023-05-29T10:51:27;19.20;1.00
19878;DHT22;10101;52.204;9.910;2023-05-29T10:53:54;20.00;1.00
19878;DHT22;10101;52.204;9.910;2023-05-29T10:56:22;19.60;99.90
19878;DHT22;10101;52.204;9.910;2023-05-29T10:58:54;19.10;61.00
19878;DHT22;10101;52.204;9.910;2023-05-29T11:01:22;19.30;1.00
19878;DHT22;10101;52.204;9.910;2023-05-29T11:03:51;19.20;99.90
19878;DHT22;10101;52.204;9.910;2023-05-29T11:06:20;18.80;99.90
19878;DHT22;10101;52.204;9.910;2023-05-29T11:08:53;18.70;82.30
19878;DHT22;10101;52.204;9.910;2023-05-29T11:11:29;19.50;26.50
19878;DHT22;10101;52.204;9.910;2023-05-29T11:14:02;19.90;1.00
19878;DHT22;10101;52.204;9.910;2023-05-29T11:16:36;19.20;1.00
19878;DHT22;10101;52.204;9.910;2023-05-29T11:19:06;19.10;99.90
19878;DHT22;10101;52.204;9.910;2023-05-29T11:21:48;19.50;4.60
19878;DHT22;10101;52.204;9.910;2023-05-29T11:24:21;20.00;99.90
19878;DHT22;10101;52.204;9.910;2023-05-29T11:26:51;19.20;96.40
19878;DHT22;10101;52.204;9.910;2023-05-29T11:29:21;19.30;1.00
19878;DHT22;10101;52.204;9.910;2023-05-29T11:31:49;19.80;99.90
19878;DHT22;10101;52.204;9.910;2023-05-29T11:34:22;19.50;95.10
19878;DHT22;10101;52.204;9.910;2023-05-29T11:36:51;19.70;95.50
19878;DHT22;10101;52.204;9.910;2023-05-29T11:39:18;20.00;24.70
19878;DHT22;10101;52.204;9.910;2023-05-29T11:41:45;20.70;50.90
19878;DHT22;10101;52.204;9.910;2023-05-29T11:44:13;20.30;62.20
19878;DHT22;10101;52.204;9.910;2023-05-29T11:46:40;19.70;99.90
19878;DHT22;10101;52.204;9.910;2023-05-29T11:49:07;19.70;90.70
19878;DHT22;10101;52.204;9.910;2023-05-29T11:51:35;19.20;1.00
19878;DHT22;10101;52.204;9.910;2023-05-29T11:54:02;19.90;35.90
19878;DHT22;10101;52.204;9.910;2023-05-29T11:56:29;20.90;98.10
19878;DHT22;10101;52.204;9.910;2023-05-29T11:58:59;20.00;85.00
19878;DHT22;10101;52.204;9.910;2023-05-29T12:01:26;20.60;99.90
19878;DHT22;10101;52.204;9.910;2023-05-29T12:03:54;20.40;98.40
19878;DHT22;10101;52.204;9.910;2023-05-29T12:06:34;20.00;26.50
19878;DHT22;10101;52.204;9.910;2023-05-29T12:09:03;20.80;72.00
19878;DHT22;10101;52.204;9.910;2023-05-29T12:11:31;21.10;1.00
19878;DHT22;10101;52.204;9.910;2023-05-29T12:14:00;21.50;99.90
19878;DHT22;10101;52.204;9.910;2023-05-29T12:16:28;21.00;46.40
19878;DHT22;10101;52.204;9.910;2023-05-29T12:18:55;21.60;97.20
19878;DHT22;10101;52.204;9.910;2023-05-29T12:21:22;20.40;16.50
19878;DHT22;10101;52.204;9.910;2023-05-29T12:23:53;20.60;1.00
19878;DHT22;10101;52.204;9.910;2023-05-29T12:26:22;20.90;1.00
19878;DHT22;10101;52.204;9.910;2023-05-29T12:28:50;21.30;1.00
19878;DHT22;10101;52.204;9.910;2023-05-29T12:31:26;21.60;37.80
19878;DHT22;10101;52.204;9.910;2023-05-29T12:33:57;21.00;27.70
19878;DHT22;10101;52.204;9.910;2023-05-29T12:36:25;21.20;1.00
19878;DHT22;10101;52.204;9.910;2023-05-29T12:38:54;20.70;1.00
19878;DHT22;10101;52.204;9.910;2023-05-29T12:41:27;20.50;1.00
19878;DHT22;10101;52.204;9.910;2023-05-29T12:43:54;20.60;1.00
19878;DHT22;10101;52.204;9.910;2023-05-29T12:46:22;20.40;1.00
19878;DHT22;10101;52.204;9.910;2023-05-29T12:48:49;20.60;1.00
19878;DHT22;10101;52.204;9.910;2023-05-29T12:51:18;20.30;1.00
19878;DHT22;10101;52.204;9.910;2023-05-29T12:53:48;20.40;1.00
19878;DHT22;10101;52.204;9.910;2023-05-29T12:56:16;20.50;1.00
19878;DHT22;10101;52.204;9.910;2023-05-29T12:58:43;21.00;1.00
19878;DHT22;10101;52.204;9.910;2023-05-29T13:01:12;21.20;1.00
19878;DHT22;10101;52.204;9.910;2023-05-29T13:03:40;22.10;7.00
19878;DHT22;10101;52.204;9.910;2023-05-29T13:06:07;21.90;1.00
19878;DHT22;10101;52.204;9.910;2023-05-29T13:08:34;21.90;1.00
19878;DHT22;10101;52.204;9.910;2023-05-29T13:11:01;22.20;32.30
19878;DHT22;10101;52.204;9.910;2023-05-29T13:13:29;21.50;1.00
19878;DHT22;10101;52.204;9.910;2023-05-29T13:15:56;21.00;1.00
19878;DHT22;10101;52.204;9.910;2023-05-29T13:18:23;20.90;1.00
19878;DHT22;10101;52.204;9.910;2023-05-29T13:20:49;21.50;1.00
19878;DHT22;10101;52.204;9.910;2023-05-29T13:23:16;22.60;1.00
19878;DHT22;10101;52.204;9.910;2023-05-29T13:25:43;23.30;1.00
19878;DHT22;10101;52.204;9.910;2023-05-29T13:28:11;23.00;1.00
19878;DHT22;10101;52.204;9.910;2023-05-29T13:30:39;22.30;1.00
19878;DHT22;10101;52.204;9.910;2023-05-29T13:33:06;22.90;1.00
19878;DHT22;10101;52.204;9.910;2023-05-29T13:35:32;23.60;1.00
19878;DHT22;10101;52.204;9.910;2023-05-29T13:37:59;23.30;1.00
19878;DHT22;10101;52.204;9.910;2023-05-29T13:40:26;22.30;1.00
19878;DHT22;10101;52.204;9.910;2023-05-29T13:42:53;21.60;1.00
19878;DHT22;10101;52.204;9.910;2023-05-29T13:45:21;22.00;1.00
19878;DHT22;10101;52.204;9.910;2023-05-29T13:47:49;22.00;1.00
19878;DHT22;10101;52.204;9.910;2023-05-29T13:50:16;24.20;1.00
19878;DHT22;10101;52.204;9.910;2023-05-29T13:52:43;23.40;1.00
19878;DHT22;10101;52.204;9.910;2023-05-29T13:55:10;23.80;1.00
19878;DHT22;10101;52.204;9.910;2023-05-29T13:57:36;23.30;1.00
19878;DHT22;10101;52.204;9.910;2023-05-29T14:00:06;23.70;1.00
19878;DHT22;10101;52.204;9.910;2023-05-29T14:02:33;23.70;1.00
19878;DHT22;10101;52.204;9.910;2023-05-29T14:05:02;23.20;1.00
19878;DHT22;10101;52.204;9.910;2023-05-29T14:07:29;23.70;1.00
19878;DHT22;10101;52.204;9.910;2023-05-29T14:09:55;24.30;1.00
19878;DHT22;10101;52.204;9.910;2023-05-29T14:12:22;23.60;1.00
19878;DHT22;10101;52.204;9.910;2023-05-29T14:14:49;22.70;1.00
19878;DHT22;10101;52.204;9.910;2023-05-29T14:17:15;22.40;1.00
19878;DHT22;10101;52.204;9.910;2023-05-29T14:19:42;23.20;1.00
19878;DHT22;10101;52.204;9.910;2023-05-29T14:22:12;23.50;1.00
19878;DHT22;10101;52.204;9.910;2023-05-29T14:24:39;23.10;1.00
19878;DHT22;10101;52.204;9.910;2023-05-29T14:27:06;22.80;1.00
19878;DHT22;10101;52.204;9.910;2023-05-29T14:29:33;22.60;1.00
19878;DHT22;10101;52.204;9.910;2023-05-29T14:31:59;23.40;1.00
19878;DHT22;10101;52.204;9.910;2023-05-29T14:34:26;23.50;1.00
19878;DHT22;10101;52.204;9.910;2023-05-29T14:36:53;23.20;1.00
19878;DHT22;10101;52.204;9.910;2023-05-29T14:39:21;23.50;1.00
19878;DHT22;10101;52.204;9.910;2023-05-29T14:41:48;23.40;1.00
19878;DHT22;10101;52.204;9.910;2023-05-29T14:44:14;22.90;1.00
19878;DHT22;10101;52.204;9.910;2023-05-29T14:46:41;23.40;1.00
19878;DHT22;10101;52.204;9.910;2023-05-29T14:49:08;23.20;1.00
19878;DHT22;10101;52.204;9.910;2023-05-29T14:51:35;23.60;1.00
19878;DHT22;10101;52.204;9.910;2023-05-29T14:54:02;23.90;1.00
19878;DHT22;10101;52.204;9.910;2023-05-29T14:56:30;24.70;1.00
19878;DHT22;10101;52.204;9.910;2023-05-29T14:58:57;24.20;1.00
19878;DHT22;10101;52.204;9.910;2023-05-29T15:01:23;24.60;1.00
19878;DHT22;10101;52.204;9.910;2023-05-29T15:03:50;25.70;1.00
19878;DHT22;10101;52.204;9.910;2023-05-29T15:06:17;27.00;1.00
19878;DHT22;10101;52.204;9.910;2023-05-29T15:08:44;24.50;1.00
19878;DHT22;10101;52.204;9.910;2023-05-29T15:11:11;24.00;1.00
19878;DHT22;10101;52.204;9.910;2023-05-29T15:13:42;23.90;1.00
19878;DHT22;10101;52.204;9.910;2023-05-29T15:16:08;23.70;1.00
19878;DHT22;10101;52.204;9.910;2023-05-29T15:18:35;23.60;1.00
19878;DHT22;10101;52.204;9.910;2023-05-29T15:21:02;23.50;1.00
19878;DHT22;10101;52.204;9.910;2023-05-29T15:23:30;23.10;1.00
19878;DHT22;10101;52.204;9.910;2023-05-29T15:25:59;23.10;1.00
19878;DHT22;10101;52.204;9.910;2023-05-29T15:28:26;23.50;1.00
19878;DHT22;10101;52.204;9.910;2023-05-29T15:30:54;23.70;1.00
19878;DHT22;10101;52.204;9.910;2023-05-29T15:33:22;23.50;1.00
19878;DHT22;10101;52.204;9.910;2023-05-29T15:35:49;24.70;1.00
19878;DHT22;10101;52.204;9.910;2023-05-29T15:38:16;24.60;1.00
19878;DHT22;10101;52.204;9.910;2023-05-29T15:40:43;24.50;1.00
19878;DHT22;10101;52.204;9.910;2023-05-29T15:43:10;24.00;1.00
19878;DHT22;10101;52.204;9.910;2023-05-29T15:45:37;23.40;1.00